sensor_id;sensor_type;location;lat;lon;timestamp;P1;durP1;ratioP1;P2;durP2;ratioP2
34499;SDS011;20745;50.882;6.962;2022-10-16T00:01:14;5.13;;;1.40;;
34499;SDS011;20745;50.882;6.962;2022-10-16T00:03:42;3.40;;;1.38;;
34499;SDS011;20745;50.882;6.962;2022-10-16T00:06:10;5.07;;;1.58;;
34499;SDS011;20745;50.882;6.962;2022-10-16T00:08:37;5.13;;;1.20;;
34499;SDS011;20745;50.882;6.962;2022-10-16T00:11:05;3.00;;;1.30;;
34499;SDS011;20745;50.882;6.962;2022-10-16T00:13:38;4.47;;;1.40;;
34499;SDS011;20745;50.882;6.962;2022-10-16T00:16:06;6.95;;;2.05;;
34499;SDS011;20745;50.882;6.962;2022-10-16T00:18:33;2.50;;;1.30;;
34499;SDS011;20745;50.882;6.962;2022-10-16T00:21:07;6.07;;;1.70;;
34499;SDS011;20745;50.882;6.962;2022-10-16T00:23:39;5.75;;;1.45;;
34499;SDS011;20745;50.882;6.962;2022-10-16T21:04:08;7.07;;;2.67;;
34499;SDS011;20745;50.882;6.962;2022-10-16T21:06:36;11.52;;;2.97;;
34499;SDS011;20745;50.882;6.962;2022-10-16T21:09:04;7.40;;;2.70;;
34499;SDS011;20745;50.882;6.962;2022-10-16T21:11:33;8.98;;;3.20;;
34499;SDS011;20745;50.882;6.962;2022-10-16T21:14:02;13.60;;;3.38;;
34499;SDS011;20745;50.882;6.962;2022-10-16T21:16:30;7.78;;;2.95;;
34499;SDS011;20745;50.882;6.962;2022-10-16T21:18:57;8.45;;;3.30;;
34499;SDS011;20745;50.882;6.962;2022-10-16T21:21:32;8.90;;;3.03;;
34499;SDS011;20745;50.882;6.962;2022-10-16T21:24:01;7.88;;;3.15;;
34499;SDS011;20745;50.882;6.962;2022-10-16T21:26:28;9.65;;;3.20;;
34499;SDS011;20745;50.882;6.962;2022-10-16T21:29:00;9.52;;;3.58;;
34499;SDS011;20745;50.882;6.962;2022-10-16T21:31:31;11.07;;;3.40;;
34499;SDS011;20745;50.882;6.962;2022-10-16T21:33:59;11.18;;;3.60;;
34499;SDS011;20745;50.882;6.962;2022-10-16T21:36:27;10.25;;;3.38;;
34499;SDS011;20745;50.882;6.962;2022-10-16T21:38:55;8.38;;;3.25;;
34499;SDS011;20745;50.882;6.962;2022-10-16T21:41:27;10.38;;;3.38;;
34499;SDS011;20745;50.882;6.962;2022-10-16T21:43:55;10.68;;;3.47;;
34499;SDS011;20745;50.882;6.962;2022-10-16T21:46:24;11.82;;;4.35;;
34499;SDS011;20745;50.882;6.962;2022-10-16T21:48:53;10.85;;;3.58;;
34499;SDS011;20745;50.882;6.962;2022-10-16T21:51:24;11.07;;;4.18;;
34499;SDS011;20745;50.882;6.962;2022-10-16T21:53:55;12.40;;;4.28;;
34499;SDS011;20745;50.882;6.962;2022-10-16T21:56:22;12.82;;;4.10;;
34499;SDS011;20745;50.882;6.962;2022-10-16T21:58:50;9.35;;;3.80;;
34499;SDS011;20745;50.882;6.962;2022-10-16T22:01:19;11.85;;;4.07;;
34499;SDS011;20745;50.882;6.962;2022-10-16T22:03:49;11.75;;;4.25;;
34499;SDS011;20745;50.882;6.962;2022-10-16T22:06:17;17.52;;;4.50;;
34499;SDS011;20745;50.882;6.962;2022-10-16T22:08:48;12.07;;;4.18;;
34499;SDS011;20745;50.882;6.962;2022-10-16T22:11:18;13.13;;;4.35;;
34499;SDS011;20745;50.882;6.962;2022-10-16T22:13:48;13.50;;;4.55;;
34499;SDS011;20745;50.882;6.962;2022-10-16T22:16:23;11.63;;;4.50;;
34499;SDS011;20745;50.882;6.962;2022-10-16T22:18:51;13.45;;;4.93;;
34499;SDS011;20745;50.882;6.962;2022-10-16T22:21:19;11.45;;;4.50;;
34499;SDS011;20745;50.882;6.962;2022-10-16T22:23:46;15.02;;;4.40;;
34499;SDS011;20745;50.882;6.962;2022-10-16T22:26:13;15.57;;;5.25;;
34499;SDS011;20745;50.882;6.962;2022-10-16T22:28:40;16.17;;;4.38;;
34499;SDS011;20745;50.882;6.962;2022-10-16T22:31:32;14.35;;;5.45;;
34499;SDS011;20745;50.882;6.962;2022-10-16T22:34:00;13.13;;;4.38;;
34499;SDS011;20745;50.882;6.962;2022-10-16T22:36:34;13.40;;;4.35;;
34499;SDS011;20745;50.882;6.962;2022-10-16T22:39:22;13.30;;;5.10;;
34499;SDS011;20745;50.882;6.962;2022-10-16T22:41:49;14.80;;;4.97;;
34499;SDS011;20745;50.882;6.962;2022-10-16T22:44:16;13.57;;;4.82;;
34499;SDS011;20745;50.882;6.962;2022-10-16T22:46:43;13.18;;;4.93;;
34499;SDS011;20745;50.882;6.962;2022-10-16T22:49:11;12.90;;;5.35;;
34499;SDS011;20745;50.882;6.962;2022-10-16T22:51:37;14.48;;;5.47;;
34499;SDS011;20745;50.882;6.962;2022-10-16T22:54:04;14.32;;;5.13;;
34499;SDS011;20745;50.882;6.962;2022-10-16T22:56:31;18.98;;;4.97;;
34499;SDS011;20745;50.882;6.962;2022-10-16T22:58:58;15.75;;;4.93;;
34499;SDS011;20745;50.882;6.962;2022-10-16T23:01:29;14.10;;;5.13;;
34499;SDS011;20745;50.882;6.962;2022-10-16T23:04:00;14.82;;;5.00;;
34499;SDS011;20745;50.882;6.962;2022-10-16T23:06:27;15.80;;;5.53;;
34499;SDS011;20745;50.882;6.962;2022-10-16T23:08:56;11.85;;;4.72;;
34499;SDS011;20745;50.882;6.962;2022-10-16T23:11:26;13.82;;;5.18;;
34499;SDS011;20745;50.882;6.962;2022-10-16T23:13:54;13.77;;;5.00;;
34499;SDS011;20745;50.882;6.962;2022-10-16T23:16:22;11.73;;;4.72;;
34499;SDS011;20745;50.882;6.962;2022-10-16T23:18:49;14.10;;;6.15;;
34499;SDS011;20745;50.882;6.962;2022-10-16T23:21:21;13.98;;;5.50;;
34499;SDS011;20745;50.882;6.962;2022-10-16T23:23:50;13.52;;;4.82;;
34499;SDS011;20745;50.882;6.962;2022-10-16T23:26:23;15.60;;;5.60;;
34499;SDS011;20745;50.882;6.962;2022-10-16T23:28:57;14.43;;;5.30;;
34499;SDS011;20745;50.882;6.962;2022-10-16T23:31:29;13.77;;;4.97;;
34499;SDS011;20745;50.882;6.962;2022-10-16T23:33:56;13.38;;;4.68;;
34499;SDS011;20745;50.882;6.962;2022-10-16T23:36:24;12.75;;;5.25;;
34499;SDS011;20745;50.882;6.962;2022-10-16T23:38:51;16.67;;;5.47;;
34499;SDS011;20745;50.882;6.962;2022-10-16T23:41:18;11.90;;;4.70;;
34499;SDS011;20745;50.882;6.962;2022-10-16T23:43:46;15.88;;;5.97;;
34499;SDS011;20745;50.882;6.962;2022-10-16T23:46:14;13.05;;;5.53;;
34499;SDS011;20745;50.882;6.962;2022-10-16T23:48:41;15.07;;;6.35;;
34499;SDS011;20745;50.882;6.962;2022-10-16T23:51:07;13.73;;;5.65;;
34499;SDS011;20745;50.882;6.962;2022-10-16T23:53:35;13.68;;;5.97;;
34499;SDS011;20745;50.882;6.962;2022-10-16T23:56:02;13.15;;;5.20;;
34499;SDS011;20745;50.882;6.962;2022-10-16T23:58:29;11.85;;;5.18;;
